Buckner, IL (62819)

5:24 PM CST on December 02, 2016 (GMT -0600)
Buckner Illinois | | Change Station

Elev 410 ft 37.98 °N, 89.02 °W | Updated 0 second ago

Scattered Clouds
Scattered Clouds
42.7 °F
Feels Like 43 °F
N
0.0
Wind Variable Wind from NNW
Gusts 0.0 mph

Today
High -- | Low -- °F
--% Chance of Precip.
Yesterday
High -- | Low -- °F
Precip. -- in
Pressure 30.31 in
Visibility 25.0 miles
Clouds Scattered Clouds 25000 ft
Windchill 43 °F
Dew Point 33 °F
Humidity 69%
Rainfall 0.10 in
Snow Depth Not available.
6:54 AM 4:36 PM
Waxing Crescent, 11% visible
METAR KMWA 022245Z 00000KT 25SM SCT250 07/00 A3031
Pressure 30.31 in
Visibility 25.0 miles
Clouds Scattered Clouds 25000 ft
Windchill 43 °F
Dew Point 33 °F
Humidity 69%
Rainfall 0.10 in
Snow Depth Not available.
6:54 AM 4:36 PM
Waxing Crescent, 11% visible
METAR KMWA 022245Z 00000KT 25SM SCT250 07/00 A3031

10-Day Weather Forecast

Almanac

Astronomy

Dec. 02, 2016 Rise Set
Actual Time
Civil Twilight
Nautical Twilight
Astronomical Twilight
Moon
Length of Visible Light
Length of Day
Tomorrow will be .
, % of the Moon is Illuminated

Today's Extremes

State Highs State Lows

Community

WunderPhotos

Upload Photos

1,955,378 photos uploaded!

WunderBlog® & News

Nearby

Air Quality

  Air Quality AQ Index Pollutant
Not available.

Snow Depth

Station Depth Elevation

Earthquake Activity

City Distance Mag. Time & Date
Minimum magnitude displayed is 2.5.

Coastal Water Temperatures

Place Temperature

Stations

Nearby Weather Stations

Station Location Temp. Windchill Dew Point Humidity Wind Precip. Elev Updated Type
                   

Watches & Warnings

There are currently no watches in effect.